createdAt,value
2022-08-20T00:00:49.968Z,982.515
2022-08-20T00:02:49.982Z,982.517
2022-08-20T00:04:50.488Z,982.520
2022-08-20T00:06:50.643Z,982.479
2022-08-20T00:08:50.554Z,982.518
2022-08-20T00:10:56.034Z,982.491
2022-08-20T00:12:49.937Z,982.511
2022-08-20T00:14:49.974Z,982.486
2022-08-20T00:16:50.240Z,982.504
2022-08-20T00:18:50.388Z,982.488
2022-08-20T00:20:50.274Z,982.511
2022-08-20T00:22:50.246Z,982.492
2022-08-20T00:24:50.589Z,982.503
2022-08-20T00:26:53.208Z,982.486
2022-08-20T00:28:50.323Z,982.498
2022-08-20T00:30:50.329Z,982.497
2022-08-20T00:32:49.992Z,982.521
2022-08-20T00:34:50.608Z,982.471
2022-08-20T00:36:50.155Z,982.494
2022-08-20T00:38:50.207Z,982.523
2022-08-20T00:40:50.221Z,982.468
2022-08-20T00:42:50.262Z,982.425
2022-08-20T00:44:50.235Z,982.424
2022-08-20T00:46:49.835Z,982.450
2022-08-20T00:48:50.716Z,982.446
2022-08-20T00:50:50.814Z,982.493
2022-08-20T00:52:50.467Z,982.567
2022-08-20T00:54:50.536Z,982.603
2022-08-20T00:56:49.842Z,982.577
2022-08-20T00:58:50.769Z,982.563
2022-08-20T01:00:50.695Z,982.621
2022-08-20T01:02:50.679Z,982.676
2022-08-20T01:04:50.208Z,982.643
2022-08-20T01:06:50.516Z,982.701
2022-08-20T01:08:50.715Z,982.650
2022-08-20T01:10:50.766Z,982.694
2022-08-20T01:13:00.004Z,982.690
2022-08-20T01:14:49.985Z,982.671
2022-08-20T01:16:50.199Z,982.653
2022-08-20T01:18:50.085Z,982.665
2022-08-20T01:20:50.101Z,982.673
2022-08-20T01:22:50.380Z,982.704
2022-08-20T01:24:50.217Z,982.668
2022-08-20T01:26:50.569Z,982.634
2022-08-20T01:28:50.474Z,982.618
2022-08-20T01:30:50.708Z,982.578
2022-08-20T01:32:50.696Z,982.585
2022-08-20T01:34:50.245Z,982.606
2022-08-20T01:36:50.718Z,982.590
2022-08-20T01:38:55.091Z,982.541
2022-08-20T01:40:50.452Z,982.510
2022-08-20T01:43:00.100Z,982.554
2022-08-20T01:44:50.245Z,982.538
2022-08-20T01:46:51.208Z,982.508
2022-08-20T01:48:50.431Z,982.554
2022-08-20T01:50:50.467Z,982.538
2022-08-20T01:52:50.495Z,982.582
2022-08-20T01:54:50.389Z,982.558
2022-08-20T01:56:50.581Z,982.543
2022-08-20T01:58:59.296Z,982.551
2022-08-20T02:00:50.328Z,982.555
2022-08-20T02:02:50.271Z,982.576
2022-08-20T02:04:50.473Z,982.547
2022-08-20T02:06:58.198Z,982.603
2022-08-20T02:08:50.602Z,982.612
2022-08-20T02:10:50.730Z,982.597
2022-08-20T02:12:53.391Z,982.618
2022-08-20T02:14:50.500Z,982.609
2022-08-20T02:16:55.849Z,982.660
2022-08-20T02:18:49.924Z,982.645
2022-08-20T02:20:49.818Z,982.659
2022-08-20T02:22:50.869Z,982.638
2022-08-20T02:24:49.805Z,982.672
2022-08-20T02:26:49.988Z,982.675
2022-08-20T02:28:50.786Z,982.643
2022-08-20T02:30:50.742Z,982.642
2022-08-20T02:32:56.681Z,982.613
2022-08-20T02:34:50.287Z,982.584
2022-08-20T02:36:50.530Z,982.618
2022-08-20T02:38:50.464Z,982.603
2022-08-20T02:40:50.572Z,982.524
2022-08-20T02:42:50.757Z,982.584
2022-08-20T02:44:50.662Z,982.557
2022-08-20T02:46:49.863Z,982.592
2022-08-20T02:48:52.864Z,982.567
2022-08-20T02:50:50.063Z,982.600
2022-08-20T02:52:52.446Z,982.587
2022-08-20T02:54:50.312Z,982.538
2022-08-20T02:56:50.662Z,982.504
2022-08-20T02:58:50.594Z,982.489
2022-08-20T03:00:50.760Z,982.470
2022-08-20T03:02:50.512Z,982.462
2022-08-20T03:04:49.956Z,982.462
2022-08-20T03:06:52.628Z,982.478
2022-08-20T03:08:50.797Z,982.495
2022-08-20T03:10:50.703Z,982.543
2022-08-20T03:12:50.713Z,982.607
2022-08-20T03:14:50.649Z,982.610
2022-08-20T03:16:50.076Z,982.577
2022-08-20T03:18:52.602Z,982.577
2022-08-20T03:20:52.572Z,982.558
2022-08-20T03:22:50.741Z,982.522
2022-08-20T03:24:54.279Z,982.577
2022-08-20T03:26:50.780Z,982.567
2022-08-20T03:28:50.587Z,982.547
2022-08-20T03:30:50.544Z,982.545
2022-08-20T03:32:50.470Z,982.532
2022-08-20T03:34:50.112Z,982.511
2022-08-20T03:36:50.327Z,982.539
2022-08-20T03:38:50.376Z,982.543
2022-08-20T03:40:50.334Z,982.565
2022-08-20T03:42:50.258Z,982.535
2022-08-20T03:44:59.636Z,982.515
2022-08-20T03:46:49.772Z,982.528
2022-08-20T03:49:00.888Z,982.522
2022-08-20T03:50:49.811Z,982.575
2022-08-20T03:52:50.131Z,982.562
2022-08-20T03:54:49.977Z,982.565
2022-08-20T03:56:50.155Z,982.566
2022-08-20T03:58:49.955Z,982.602
2022-08-20T04:00:50.052Z,982.608
2022-08-20T04:02:49.985Z,982.667
2022-08-20T04:04:50.327Z,982.654
2022-08-20T04:06:50.501Z,982.674
2022-08-20T04:08:50.348Z,982.696
2022-08-20T04:10:50.501Z,982.743
2022-08-20T04:12:53.512Z,982.782
2022-08-20T04:14:50.336Z,982.791
2022-08-20T04:16:51.496Z,982.760
2022-08-20T04:19:02.864Z,982.805
2022-08-20T04:20:50.137Z,982.836
2022-08-20T04:22:59.902Z,982.910
2022-08-20T04:24:49.884Z,982.910
2022-08-20T04:26:50.311Z,982.910
2022-08-20T04:28:49.855Z,982.958
2022-08-20T04:30:52.251Z,983.008
2022-08-20T04:32:50.115Z,983.023
2022-08-20T04:34:50.334Z,983.021
2022-08-20T04:36:50.776Z,983.049
2022-08-20T04:38:51.421Z,983.045
2022-08-20T04:40:50.341Z,983.053
2022-08-20T04:42:54.205Z,983.041
2022-08-20T04:44:50.487Z,983.060
2022-08-20T04:46:50.744Z,983.107
2022-08-20T04:48:51.167Z,983.081
2022-08-20T04:50:50.339Z,983.160
2022-08-20T04:52:50.607Z,983.146
2022-08-20T04:54:50.697Z,983.156
2022-08-20T04:56:50.166Z,983.165
2022-08-20T04:58:50.193Z,983.175
2022-08-20T05:00:50.529Z,983.183
2022-08-20T05:02:50.792Z,983.158
2022-08-20T05:04:49.999Z,983.164
2022-08-20T05:06:50.165Z,983.138
2022-08-20T05:08:50.093Z,983.157
2022-08-20T05:11:06.664Z,983.141
2022-08-20T05:12:57.567Z,983.151
2022-08-20T05:14:50.473Z,983.173
2022-08-20T05:16:50.743Z,983.125
2022-08-20T05:18:53.221Z,983.139
2022-08-20T05:20:50.445Z,983.126
2022-08-20T05:22:50.340Z,983.099
2022-08-20T05:24:52.768Z,983.103
2022-08-20T05:26:50.168Z,983.110
2022-08-20T05:28:59.638Z,983.130
2022-08-20T05:30:50.756Z,983.197
2022-08-20T05:32:49.811Z,983.196
2022-08-20T05:34:50.172Z,983.178
2022-08-20T05:36:50.365Z,983.175
2022-08-20T05:38:50.897Z,983.205
2022-08-20T05:40:50.038Z,983.207
2022-08-20T05:42:49.940Z,983.274
2022-08-20T05:44:49.928Z,983.325
2022-08-20T05:46:50.102Z,983.288
2022-08-20T05:48:49.978Z,983.310
2022-08-20T05:50:49.943Z,983.261
2022-08-20T05:52:49.904Z,983.262
2022-08-20T05:54:50.039Z,983.287
2022-08-20T05:56:50.575Z,983.266
2022-08-20T05:58:52.404Z,983.266
2022-08-20T06:00:50.555Z,983.255
2022-08-20T06:02:50.627Z,983.245
2022-08-20T06:04:56.622Z,983.237
2022-08-20T06:06:49.838Z,983.291
2022-08-20T06:08:51.194Z,983.299
2022-08-20T06:10:50.020Z,983.413
2022-08-20T06:12:50.145Z,983.432
2022-08-20T06:14:50.033Z,983.449
2022-08-20T06:16:59.347Z,983.408
2022-08-20T06:18:50.374Z,983.431
2022-08-20T06:20:50.519Z,983.438
2022-08-20T06:22:50.854Z,983.453
2022-08-20T06:24:49.924Z,983.428
2022-08-20T06:26:50.369Z,983.436
2022-08-20T06:28:54.478Z,983.441
2022-08-20T06:30:50.531Z,983.475
2022-08-20T06:32:50.401Z,983.480
2022-08-20T06:34:51.395Z,983.457
2022-08-20T06:36:50.682Z,983.489
2022-08-20T06:38:50.501Z,983.488
2022-08-20T06:40:50.459Z,983.484
2022-08-20T06:42:50.341Z,983.489
2022-08-20T06:44:50.498Z,983.487
2022-08-20T06:46:50.528Z,983.487
2022-08-20T06:48:50.571Z,983.503
2022-08-20T06:50:50.470Z,983.540
2022-08-20T06:52:53.504Z,983.525
2022-08-20T06:54:50.511Z,983.536
2022-08-20T06:56:49.867Z,983.531
2022-08-20T06:58:49.981Z,983.500
2022-08-20T07:00:49.961Z,983.527
2022-08-20T07:02:50.282Z,983.552
2022-08-20T07:04:49.794Z,983.500
2022-08-20T07:06:49.949Z,983.551
2022-08-20T07:08:49.949Z,983.544
2022-08-20T07:10:49.861Z,983.547
2022-08-20T07:12:50.844Z,983.563
2022-08-20T07:14:49.902Z,983.538
2022-08-20T07:16:50.260Z,983.502
2022-08-20T07:18:50.287Z,983.507
2022-08-20T07:20:51.094Z,983.537
2022-08-20T07:22:50.679Z,983.536
2022-08-20T07:24:50.591Z,983.603
2022-08-20T07:26:50.036Z,983.578
2022-08-20T07:28:49.978Z,983.585
2022-08-20T07:30:58.089Z,983.563
2022-08-20T07:32:50.065Z,983.589
2022-08-20T07:34:50.799Z,983.592
2022-08-20T07:36:50.119Z,983.623
2022-08-20T07:38:50.031Z,983.596
2022-08-20T07:40:50.082Z,983.619
2022-08-20T07:42:50.128Z,983.635
2022-08-20T07:44:49.948Z,983.644
2022-08-20T07:46:50.272Z,983.667
2022-08-20T07:48:50.932Z,983.672
2022-08-20T07:50:49.808Z,983.696
2022-08-20T07:52:50.086Z,983.705
2022-08-20T07:54:49.983Z,983.704
2022-08-20T07:56:50.093Z,983.745
2022-08-20T07:58:50.618Z,983.736
2022-08-20T08:00:54.303Z,983.649
2022-08-20T08:02:50.137Z,983.719
2022-08-20T08:04:50.683Z,983.776
2022-08-20T08:06:50.086Z,983.766
2022-08-20T08:08:50.191Z,983.729
2022-08-20T08:10:50.511Z,983.745
2022-08-20T08:12:50.425Z,983.796
2022-08-20T08:14:50.532Z,983.778
2022-08-20T08:16:49.892Z,983.746
2022-08-20T08:18:50.046Z,983.769
2022-08-20T08:20:50.036Z,983.766
2022-08-20T08:22:50.273Z,983.751
2022-08-20T08:24:57.979Z,983.784
2022-08-20T08:26:50.439Z,983.744
2022-08-20T08:28:50.613Z,983.772
2022-08-20T08:30:50.583Z,983.766
2022-08-20T08:32:50.543Z,983.732
2022-08-20T08:34:49.996Z,983.770
2022-08-20T08:36:50.207Z,983.818
2022-08-20T08:38:50.252Z,983.824
2022-08-20T08:41:00.473Z,983.901
2022-08-20T08:42:50.414Z,983.863
2022-08-20T08:44:50.450Z,983.891
2022-08-20T08:46:50.767Z,983.885
2022-08-20T08:48:50.771Z,983.881
2022-08-20T08:50:55.011Z,983.949
2022-08-20T08:52:50.321Z,983.966
2022-08-20T08:54:50.474Z,983.966
2022-08-20T08:56:51.051Z,984.007
2022-08-20T08:58:49.794Z,984.001
2022-08-20T09:01:04.877Z,984.060
2022-08-20T09:02:50.141Z,984.056
2022-08-20T09:04:49.999Z,984.036
2022-08-20T09:06:52.661Z,984.060
2022-08-20T09:08:50.739Z,984.082
2022-08-20T09:10:50.760Z,984.104
2022-08-20T09:12:52.586Z,984.068
2022-08-20T09:14:50.556Z,984.118
2022-08-20T09:16:53.779Z,984.110
2022-08-20T09:18:49.828Z,984.057
2022-08-20T09:20:50.621Z,984.040
2022-08-20T09:22:52.410Z,984.051
2022-08-20T09:24:50.431Z,984.057
2022-08-20T09:26:50.676Z,984.087
2022-08-20T09:28:52.578Z,984.085
2022-08-20T09:30:51.612Z,984.113
2022-08-20T09:32:50.556Z,984.191
2022-08-20T09:34:52.806Z,984.192
2022-08-20T09:36:50.325Z,984.249
2022-08-20T09:38:50.454Z,984.222
2022-08-20T09:40:50.357Z,984.228
2022-08-20T09:42:50.386Z,984.224
2022-08-20T09:44:50.367Z,984.156
2022-08-20T09:46:50.696Z,984.141
2022-08-20T09:48:50.647Z,984.101
2022-08-20T09:50:50.819Z,984.101
2022-08-20T09:52:53.849Z,984.134
2022-08-20T09:54:50.442Z,984.133
2022-08-20T09:56:49.838Z,984.116
2022-08-20T09:58:49.894Z,984.107
2022-08-20T10:00:49.995Z,984.168
2022-08-20T10:02:49.913Z,984.188
2022-08-20T10:04:51.491Z,984.192
2022-08-20T10:06:50.425Z,984.135
2022-08-20T10:08:50.312Z,984.191
2022-08-20T10:10:50.247Z,984.116
2022-08-20T10:12:55.338Z,984.132
2022-08-20T10:14:50.612Z,984.132
2022-08-20T10:16:49.798Z,984.095
2022-08-20T10:18:50.741Z,984.132
2022-08-20T10:20:50.507Z,984.084
2022-08-20T10:22:50.766Z,984.139
2022-08-20T10:24:50.671Z,984.106
2022-08-20T10:26:50.125Z,984.084
2022-08-20T10:28:49.959Z,984.127
2022-08-20T10:30:50.093Z,984.146
2022-08-20T10:32:49.987Z,984.155
2022-08-20T10:34:50.382Z,984.174
2022-08-20T10:36:50.669Z,984.176
2022-08-20T10:38:50.503Z,984.181
2022-08-20T10:40:52.972Z,984.158
2022-08-20T10:42:49.880Z,984.144
2022-08-20T10:44:50.044Z,984.154
2022-08-20T10:46:57.491Z,984.135
2022-08-20T10:48:50.541Z,984.092
2022-08-20T10:50:50.443Z,984.124
2022-08-20T10:52:51.944Z,984.125
2022-08-20T10:54:49.865Z,984.136
2022-08-20T10:56:50.132Z,984.038
2022-08-20T10:58:50.527Z,984.101
2022-08-20T11:00:50.528Z,984.012
2022-08-20T11:02:50.523Z,984.003
2022-08-20T11:04:50.002Z,984.019
2022-08-20T11:06:50.329Z,984.068
2022-08-20T11:08:53.126Z,983.999
2022-08-20T11:10:50.666Z,984.009
2022-08-20T11:12:50.772Z,983.991
2022-08-20T11:14:49.803Z,983.979
2022-08-20T11:16:49.861Z,984.007
2022-08-20T11:18:50.754Z,983.962
2022-08-20T11:20:50.753Z,983.962
2022-08-20T11:22:49.816Z,983.974
2022-08-20T11:24:50.164Z,983.952
2022-08-20T11:26:50.349Z,983.975
2022-08-20T11:28:50.216Z,983.916
2022-08-20T11:30:50.203Z,983.908
2022-08-20T11:32:50.225Z,983.881
2022-08-20T11:34:50.578Z,983.881
2022-08-20T11:36:50.077Z,983.879
2022-08-20T11:38:50.035Z,983.880
2022-08-20T11:40:50.169Z,983.806
2022-08-20T11:43:14.494Z,983.810
2022-08-20T11:44:50.743Z,983.746
2022-08-20T11:46:50.126Z,983.721
2022-08-20T11:48:50.781Z,983.780
2022-08-20T11:50:50.648Z,983.796
2022-08-20T11:52:51.202Z,983.792
2022-08-20T11:54:55.305Z,983.792
2022-08-20T11:56:50.618Z,983.761
2022-08-20T11:58:50.645Z,983.807
2022-08-20T12:00:50.657Z,983.804
2022-08-20T12:02:55.923Z,983.796
2022-08-20T12:04:50.371Z,983.787
2022-08-20T12:06:50.665Z,983.787
2022-08-20T12:08:50.676Z,983.742
2022-08-20T12:10:50.757Z,983.691
2022-08-20T12:12:50.754Z,983.717
2022-08-20T12:14:50.017Z,983.676
2022-08-20T12:16:50.232Z,983.693
2022-08-20T12:18:50.351Z,983.682
2022-08-20T12:20:51.115Z,983.692
2022-08-20T12:22:50.310Z,983.698
2022-08-20T12:24:50.659Z,983.689
2022-08-20T12:26:49.897Z,983.730
2022-08-20T12:28:49.911Z,983.773
2022-08-20T12:30:49.953Z,983.737
2022-08-20T12:32:50.359Z,983.722
2022-08-20T12:34:49.818Z,983.695
2022-08-20T12:36:50.162Z,983.659
2022-08-20T12:38:49.994Z,983.704
2022-08-20T12:40:49.974Z,983.669
2022-08-20T12:42:50.146Z,983.693
2022-08-20T12:44:50.286Z,983.658
2022-08-20T12:46:50.526Z,983.646
2022-08-20T12:48:50.550Z,983.627
2022-08-20T12:50:50.812Z,983.676
2022-08-20T12:52:50.891Z,983.727
2022-08-20T12:54:49.936Z,983.698
2022-08-20T12:56:50.463Z,983.695
2022-08-20T12:58:50.783Z,983.695
2022-08-20T13:00:51.701Z,983.738
2022-08-20T13:02:50.815Z,983.725
2022-08-20T13:04:50.016Z,983.775
2022-08-20T13:06:51.454Z,983.775
2022-08-20T13:08:50.626Z,983.776
2022-08-20T13:10:51.049Z,983.794
2022-08-20T13:12:50.334Z,983.805
2022-08-20T13:14:50.252Z,983.827
2022-08-20T13:16:55.023Z,983.765
2022-08-20T13:18:49.911Z,983.819
2022-08-20T13:20:49.919Z,983.795
2022-08-20T13:22:50.822Z,983.766
2022-08-20T13:24:49.947Z,983.744
2022-08-20T13:26:50.250Z,983.700
2022-08-20T13:28:50.217Z,983.695
2022-08-20T13:30:50.194Z,983.675
2022-08-20T13:32:50.220Z,983.667
2022-08-20T13:34:50.059Z,983.631
2022-08-20T13:36:50.301Z,983.623
2022-08-20T13:38:50.228Z,983.598
2022-08-20T13:40:50.090Z,983.548
2022-08-20T13:42:50.442Z,983.521
2022-08-20T13:44:50.442Z,983.485
2022-08-20T13:46:50.963Z,983.463
2022-08-20T13:48:50.583Z,983.423
2022-08-20T13:50:50.660Z,983.399
2022-08-20T13:52:51.043Z,983.350
2022-08-20T13:54:49.939Z,983.357
2022-08-20T13:56:50.475Z,983.315
2022-08-20T13:58:53.363Z,983.314
2022-08-20T14:00:50.307Z,983.363
2022-08-20T14:02:50.381Z,983.324
2022-08-20T14:04:49.954Z,983.338
2022-08-20T14:06:50.205Z,983.365
2022-08-20T14:08:50.074Z,983.414
2022-08-20T14:10:52.086Z,983.426
2022-08-20T14:12:50.227Z,983.427
2022-08-20T14:14:51.780Z,983.465
2022-08-20T14:16:50.147Z,983.451
2022-08-20T14:18:53.196Z,983.495
2022-08-20T14:20:50.143Z,983.423
2022-08-20T14:22:50.182Z,983.423
2022-08-20T14:24:50.369Z,983.460
2022-08-20T14:26:50.645Z,983.460
2022-08-20T14:28:50.660Z,983.458
2022-08-20T14:30:53.944Z,983.446
2022-08-20T14:32:50.163Z,983.451
2022-08-20T14:34:50.563Z,983.453
2022-08-20T14:36:50.909Z,983.446
2022-08-20T14:38:49.926Z,983.468
2022-08-20T14:40:49.977Z,983.468
2022-08-20T14:44:50.306Z,983.412
2022-08-20T14:46:50.483Z,983.410
2022-08-20T14:48:53.780Z,983.410
2022-08-20T14:50:50.650Z,983.489
2022-08-20T14:52:50.049Z,983.477
2022-08-20T14:54:50.209Z,983.422
2022-08-20T14:56:50.516Z,983.462
2022-08-20T14:58:50.415Z,983.558
2022-08-20T15:00:50.481Z,983.521
2022-08-20T15:02:50.874Z,983.553
2022-08-20T15:04:55.951Z,983.533
2022-08-20T15:06:50.117Z,983.471
2022-08-20T15:08:49.855Z,983.445
2022-08-20T15:10:49.884Z,983.533
2022-08-20T15:12:50.959Z,983.474
2022-08-20T15:14:51.180Z,983.528
2022-08-20T15:16:50.354Z,983.472
2022-08-20T15:18:59.957Z,983.520
2022-08-20T15:20:49.937Z,983.530
2022-08-20T15:22:49.841Z,983.490
2022-08-20T15:24:57.920Z,983.420
2022-08-20T15:26:50.030Z,983.401
2022-08-20T15:28:50.017Z,983.324
2022-08-20T15:30:49.981Z,983.344
2022-08-20T15:32:55.411Z,983.417
2022-08-20T15:34:50.520Z,983.379
2022-08-20T15:36:49.935Z,983.438
2022-08-20T15:38:50.076Z,983.353
2022-08-20T15:40:50.065Z,983.381
2022-08-20T15:42:50.436Z,983.327
2022-08-20T15:44:50.354Z,983.331
2022-08-20T15:46:50.676Z,983.444
2022-08-20T15:48:50.569Z,983.480
2022-08-20T15:50:50.779Z,983.490
2022-08-20T15:52:50.660Z,983.520
2022-08-20T15:54:56.628Z,983.580
2022-08-20T15:56:49.929Z,983.553
2022-08-20T15:58:50.314Z,983.609
2022-08-20T16:00:50.487Z,983.611
2022-08-20T16:02:50.751Z,983.611
2022-08-20T16:04:50.146Z,983.751
2022-08-20T16:06:50.669Z,983.769
2022-08-20T16:08:50.605Z,983.831
2022-08-20T16:10:50.672Z,983.832
2022-08-20T16:12:50.790Z,983.788
2022-08-20T16:14:50.684Z,983.772
2022-08-20T16:17:01.747Z,983.795
2022-08-20T16:18:50.316Z,983.811
2022-08-20T16:20:50.300Z,983.797
2022-08-20T16:22:56.014Z,983.832
2022-08-20T16:24:50.303Z,983.777
2022-08-20T16:26:50.499Z,983.822
2022-08-20T16:28:50.572Z,983.846
2022-08-20T16:30:50.558Z,983.869
2022-08-20T16:32:53.962Z,983.842
2022-08-20T16:34:49.802Z,983.874
2022-08-20T16:37:04.649Z,983.922
2022-08-20T16:38:50.085Z,983.908
2022-08-20T16:40:50.257Z,983.941
2022-08-20T16:42:50.324Z,983.934
2022-08-20T16:44:50.445Z,983.959
2022-08-20T16:46:49.927Z,983.937
2022-08-20T16:48:49.811Z,983.957
2022-08-20T16:50:50.734Z,983.976
2022-08-20T16:52:50.815Z,983.937
2022-08-20T16:54:50.753Z,983.957
2022-08-20T16:56:54.107Z,983.946
2022-08-20T16:58:50.651Z,983.980
2022-08-20T17:00:50.757Z,983.948
2022-08-20T17:02:50.187Z,983.944
2022-08-20T17:05:00.514Z,983.972
2022-08-20T17:06:53.006Z,983.972
2022-08-20T17:08:50.142Z,983.992
2022-08-20T17:10:50.110Z,984.038
2022-08-20T17:12:50.246Z,984.053
2022-08-20T17:14:50.688Z,984.128
2022-08-20T17:16:50.068Z,984.214
2022-08-20T17:18:50.190Z,984.189
2022-08-20T17:20:50.096Z,984.191
2022-08-20T17:22:50.267Z,984.234
2022-08-20T17:24:50.396Z,984.257
2022-08-20T17:26:54.790Z,984.265
2022-08-20T17:28:49.869Z,984.257
2022-08-20T17:30:49.835Z,984.274
2022-08-20T17:32:58.742Z,984.344
2022-08-20T17:34:50.607Z,984.316
2022-08-20T17:36:49.835Z,984.337
2022-08-20T17:38:52.055Z,984.400
2022-08-20T17:40:49.945Z,984.367
2022-08-20T17:42:49.973Z,984.379
2022-08-20T17:44:50.157Z,984.356
2022-08-20T17:46:50.479Z,984.325
2022-08-20T17:48:50.330Z,984.346
2022-08-20T17:50:50.280Z,984.377
2022-08-20T17:52:50.429Z,984.409
2022-08-20T17:54:50.573Z,984.459
2022-08-20T17:56:50.039Z,984.457
2022-08-20T17:59:01.451Z,984.476
2022-08-20T18:00:50.376Z,984.442
2022-08-20T18:02:50.408Z,984.452
2022-08-20T18:04:52.347Z,984.415
2022-08-20T18:06:49.965Z,984.424
2022-08-20T18:08:50.104Z,984.403
2022-08-20T18:10:50.162Z,984.417
2022-08-20T18:12:50.175Z,984.378
2022-08-20T18:14:50.117Z,984.405
2022-08-20T18:16:50.317Z,984.389
2022-08-20T18:18:57.677Z,984.421
2022-08-20T18:20:50.768Z,984.417
2022-08-20T18:22:50.993Z,984.418
2022-08-20T18:24:50.110Z,984.402
2022-08-20T18:26:51.783Z,984.402
2022-08-20T18:28:50.276Z,984.414
2022-08-20T18:30:50.404Z,984.424
2022-08-20T18:32:50.654Z,984.425
2022-08-20T18:34:50.178Z,984.449
2022-08-20T18:36:50.375Z,984.463
2022-08-20T18:38:50.401Z,984.496
2022-08-20T18:40:55.584Z,984.516
2022-08-20T18:42:50.742Z,984.516
2022-08-20T18:44:51.381Z,984.548
2022-08-20T18:46:50.636Z,984.550
2022-08-20T18:48:50.723Z,984.542
2022-08-20T18:50:49.942Z,984.532
2022-08-20T18:52:50.073Z,984.563
2022-08-20T18:54:50.246Z,984.569
2022-08-20T18:56:50.436Z,984.558
2022-08-20T18:58:52.459Z,984.603
2022-08-20T19:00:50.423Z,984.603
2022-08-20T19:02:50.624Z,984.588
2022-08-20T19:05:02.839Z,984.625
2022-08-20T19:06:58.041Z,984.631
2022-08-20T19:08:50.175Z,984.640
2022-08-20T19:10:50.142Z,984.708
2022-08-20T19:12:50.279Z,984.695
2022-08-20T19:14:50.387Z,984.664
2022-08-20T19:16:50.756Z,984.631
2022-08-20T19:18:50.709Z,984.637
2022-08-20T19:20:50.630Z,984.660
2022-08-20T19:22:50.668Z,984.639
2022-08-20T19:24:57.079Z,984.668
2022-08-20T19:26:50.280Z,984.683
2022-08-20T19:28:50.359Z,984.689
2022-08-20T19:30:50.330Z,984.684
2022-08-20T19:32:51.707Z,984.695
2022-08-20T19:34:50.322Z,984.665
2022-08-20T19:36:50.518Z,984.631
2022-08-20T19:38:50.372Z,984.632
2022-08-20T19:41:11.099Z,984.613
2022-08-20T19:42:49.953Z,984.561
2022-08-20T19:44:49.988Z,984.544
2022-08-20T19:46:50.262Z,984.551
2022-08-20T19:48:50.191Z,984.528
2022-08-20T19:50:50.158Z,984.544
2022-08-20T19:52:50.422Z,984.580
2022-08-20T19:54:50.501Z,984.567
2022-08-20T19:56:49.884Z,984.561
2022-08-20T19:58:50.077Z,984.552
2022-08-20T20:00:50.250Z,984.543
2022-08-20T20:02:50.515Z,984.587
2022-08-20T20:04:58.450Z,984.599
2022-08-20T20:06:49.943Z,984.606
2022-08-20T20:08:49.961Z,984.615
2022-08-20T20:10:49.921Z,984.690
2022-08-20T20:12:49.940Z,984.682
2022-08-20T20:14:50.541Z,984.585
2022-08-20T20:16:50.009Z,984.579
2022-08-20T20:19:25.632Z,984.584
2022-08-20T20:20:58.352Z,984.584
2022-08-20T20:22:50.287Z,984.641
2022-08-20T20:24:50.687Z,984.652
2022-08-20T20:26:50.029Z,984.661
2022-08-20T20:28:49.982Z,984.661
2022-08-20T20:30:50.003Z,984.661
2022-08-20T20:32:50.142Z,984.695
2022-08-20T20:34:56.390Z,984.655
2022-08-20T20:36:50.638Z,984.641
2022-08-20T20:38:50.619Z,984.626
2022-08-20T20:40:50.536Z,984.626
2022-08-20T20:42:50.914Z,984.681
2022-08-20T20:44:49.904Z,984.654
2022-08-20T20:46:50.417Z,984.675
2022-08-20T20:48:50.481Z,984.604
2022-08-20T20:50:50.690Z,984.588
2022-08-20T20:52:50.775Z,984.592
2022-08-20T20:54:49.955Z,984.625
2022-08-20T20:56:50.527Z,984.642
2022-08-20T20:58:56.419Z,984.616
2022-08-20T21:00:50.472Z,984.572
2022-08-20T21:02:50.636Z,984.592
2022-08-20T21:04:50.093Z,984.571
2022-08-20T21:06:50.676Z,984.559
2022-08-20T21:08:49.829Z,984.550
2022-08-20T21:10:49.799Z,984.538
2022-08-20T21:12:53.770Z,984.543
2022-08-20T21:14:49.900Z,984.580
2022-08-20T21:16:50.242Z,984.596
2022-08-20T21:18:50.081Z,984.570
2022-08-20T21:20:49.891Z,984.615
2022-08-20T21:22:50.784Z,984.632
2022-08-20T21:24:50.247Z,984.592
2022-08-20T21:26:50.730Z,984.603
2022-08-20T21:28:50.657Z,984.628
2022-08-20T21:30:58.819Z,984.660
2022-08-20T21:32:51.128Z,984.685
2022-08-20T21:34:50.072Z,984.713
2022-08-20T21:36:50.256Z,984.697
2022-08-20T21:38:50.186Z,984.662
2022-08-20T21:40:50.147Z,984.652
2022-08-20T21:42:51.540Z,984.671
2022-08-20T21:44:50.461Z,984.655
2022-08-20T21:46:50.664Z,984.684
2022-08-20T21:48:50.688Z,984.684
2022-08-20T21:50:49.806Z,984.681
2022-08-20T21:53:00.403Z,984.652
2022-08-20T21:54:49.887Z,984.617
2022-08-20T21:56:50.181Z,984.629
2022-08-20T21:58:55.214Z,984.665
2022-08-20T22:00:50.472Z,984.611
2022-08-20T22:02:50.539Z,984.595
2022-08-20T22:04:54.303Z,984.566
2022-08-20T22:06:50.674Z,984.604
2022-08-20T22:08:50.672Z,984.560
2022-08-20T22:10:50.012Z,984.515
2022-08-20T22:12:49.997Z,984.497
2022-08-20T22:14:50.063Z,984.510
2022-08-20T22:16:50.219Z,984.506
2022-08-20T22:18:50.420Z,984.504
2022-08-20T22:20:50.446Z,984.504
2022-08-20T22:22:50.576Z,984.480
2022-08-20T22:24:50.660Z,984.480
2022-08-20T22:26:49.977Z,984.480
2022-08-20T22:28:51.674Z,984.509
2022-08-20T22:30:50.757Z,984.506
2022-08-20T22:33:00.683Z,984.555
2022-08-20T22:34:50.052Z,984.572
2022-08-20T22:36:50.459Z,984.591
2022-08-20T22:38:55.162Z,984.588
2022-08-20T22:40:50.314Z,984.588
2022-08-20T22:42:50.498Z,984.570
2022-08-20T22:44:50.488Z,984.542
2022-08-20T22:46:56.057Z,984.564
2022-08-20T22:48:50.774Z,984.524
2022-08-20T22:50:49.881Z,984.525
2022-08-20T22:52:49.820Z,984.492
2022-08-20T22:54:49.893Z,984.509
2022-08-20T22:56:53.032Z,984.513
2022-08-20T22:58:50.641Z,984.510
2022-08-20T23:00:53.825Z,984.491
2022-08-20T23:02:49.854Z,984.484
2022-08-20T23:04:51.993Z,984.488
2022-08-20T23:06:50.196Z,984.507
2022-08-20T23:08:50.566Z,984.503
2022-08-20T23:10:52.445Z,984.484
2022-08-20T23:12:50.521Z,984.509
2022-08-20T23:14:50.497Z,984.543
2022-08-20T23:16:50.684Z,984.551
2022-08-20T23:18:50.627Z,984.575
2022-08-20T23:20:49.857Z,984.546
2022-08-20T23:22:55.049Z,984.543
2022-08-20T23:24:50.092Z,984.508
2022-08-20T23:26:53.754Z,984.517
2022-08-20T23:28:50.705Z,984.470
2022-08-20T23:30:49.852Z,984.426
2022-08-20T23:32:49.842Z,984.406
2022-08-20T23:34:50.354Z,984.458
2022-08-20T23:36:50.814Z,984.458
2022-08-20T23:38:49.989Z,984.432
2022-08-20T23:40:50.047Z,984.418
2022-08-20T23:42:50.271Z,984.391
2022-08-20T23:44:50.236Z,984.375
2022-08-20T23:46:54.797Z,984.359
2022-08-20T23:48:50.739Z,984.381
2022-08-20T23:50:50.602Z,984.393
2022-08-20T23:52:52.015Z,984.388
2022-08-20T23:54:49.994Z,984.355
2022-08-20T23:56:50.331Z,984.334
2022-08-20T23:58:50.368Z,984.321
